createdAt,value
2023-05-15T00:01:51.885Z,11.71
2023-05-15T00:04:54.527Z,11.77
2023-05-15T00:07:57.409Z,11.80
2023-05-15T00:11:01.963Z,11.79
2023-05-15T00:14:04.969Z,11.80
2023-05-15T00:17:08.338Z,11.81
2023-05-15T00:20:11.584Z,11.82
2023-05-15T00:23:14.274Z,11.86
2023-05-15T00:26:16.966Z,11.88
2023-05-15T00:29:19.651Z,11.89
2023-05-15T00:32:22.326Z,11.94
2023-05-15T00:35:25.288Z,11.85
2023-05-15T00:38:28.114Z,11.80
2023-05-15T00:41:32.714Z,11.78
2023-05-15T00:44:36.007Z,11.76
2023-05-15T00:47:40.571Z,11.71
2023-05-15T00:50:44.048Z,11.70
2023-05-15T00:53:46.620Z,11.69
2023-05-15T00:56:49.467Z,11.72
2023-05-15T00:59:53.002Z,11.76
2023-05-15T01:02:55.668Z,11.80
2023-05-15T01:05:58.350Z,11.83
2023-05-15T01:09:04.475Z,11.87
2023-05-15T01:12:07.869Z,11.86
2023-05-15T01:15:11.150Z,11.90
2023-05-15T01:18:13.773Z,11.89
2023-05-15T01:21:28.401Z,11.89
2023-05-15T01:24:59.641Z,11.85
2023-05-15T01:28:06.395Z,11.79
2023-05-15T01:31:15.116Z,11.82
2023-05-15T01:34:19.795Z,11.57
2023-05-15T01:37:25.413Z,11.86
2023-05-15T01:40:28.829Z,11.78
2023-05-15T01:43:33.260Z,11.85
2023-05-15T01:46:39.777Z,11.82
2023-05-15T01:49:45.326Z,11.87
2023-05-15T01:52:54.118Z,11.88
2023-05-15T01:55:57.381Z,11.93
2023-05-15T01:59:00.741Z,11.89
2023-05-15T02:02:07.661Z,11.94
2023-05-15T02:05:11.320Z,11.91
2023-05-15T02:08:15.841Z,11.87
2023-05-15T02:11:19.156Z,11.85
2023-05-15T02:14:22.795Z,11.88
2023-05-15T02:17:25.668Z,11.91
2023-05-15T02:20:28.478Z,11.93
2023-05-15T02:23:31.098Z,11.92
2023-05-15T02:26:58.152Z,11.94
2023-05-15T02:30:26.762Z,11.94
2023-05-15T02:33:41.171Z,11.95
2023-05-15T02:36:47.159Z,11.79
2023-05-15T02:39:54.657Z,11.93
2023-05-15T02:42:57.919Z,11.90
2023-05-15T02:46:00.620Z,11.92
2023-05-15T02:49:04.040Z,11.87
2023-05-15T02:52:07.067Z,11.89
2023-05-15T02:55:10.461Z,11.87
2023-05-15T02:58:13.319Z,11.84
2023-05-15T03:01:16.432Z,11.90
2023-05-15T03:04:19.221Z,11.89
2023-05-15T03:07:21.793Z,11.89
2023-05-15T03:10:24.524Z,11.87
2023-05-15T03:13:27.300Z,11.85
2023-05-15T03:16:29.964Z,11.89
2023-05-15T03:19:32.853Z,11.89
2023-05-15T03:22:35.422Z,11.83
2023-05-15T03:25:38.059Z,11.86
2023-05-15T03:28:42.188Z,11.90
2023-05-15T03:31:44.992Z,11.90
2023-05-15T03:34:47.662Z,11.92
2023-05-15T03:37:50.222Z,11.99
2023-05-15T03:40:52.802Z,11.93
2023-05-15T03:43:55.391Z,11.98
2023-05-15T03:46:58.052Z,12.04
2023-05-15T03:50:00.790Z,12.06
2023-05-15T03:53:03.526Z,12.07
2023-05-15T03:56:06.539Z,12.15
2023-05-15T03:59:09.096Z,12.25
2023-05-15T04:02:11.739Z,12.20
2023-05-15T04:05:14.364Z,12.26
2023-05-15T04:08:17.185Z,12.19
2023-05-15T04:11:19.830Z,12.22
2023-05-15T04:14:22.526Z,12.36
2023-05-15T04:17:25.222Z,12.41
2023-05-15T04:20:27.914Z,12.43
2023-05-15T04:23:30.466Z,12.40
2023-05-15T04:26:33.558Z,12.43
2023-05-15T04:29:36.184Z,12.55
2023-05-15T04:32:39.687Z,12.64
2023-05-15T04:35:42.347Z,12.86
2023-05-15T04:38:44.939Z,12.95
2023-05-15T04:41:47.601Z,13.07
2023-05-15T04:44:50.247Z,13.16
2023-05-15T04:47:53.011Z,13.30
2023-05-15T04:50:55.632Z,13.28
2023-05-15T04:53:58.280Z,13.32
2023-05-15T04:57:01.420Z,13.31
2023-05-15T05:00:12.293Z,13.52
2023-05-15T05:03:15.210Z,13.75
2023-05-15T05:06:17.982Z,13.77
2023-05-15T05:09:20.757Z,13.67
2023-05-15T05:12:23.297Z,13.69
2023-05-15T05:15:26.116Z,13.67
2023-05-15T05:18:30.813Z,13.76
2023-05-15T05:21:34.214Z,14.02
2023-05-15T05:24:37.722Z,13.87
2023-05-15T05:27:40.464Z,13.81
2023-05-15T05:30:46.263Z,14.10
2023-05-15T05:33:52.988Z,14.35
2023-05-15T05:36:55.691Z,14.66
2023-05-15T05:40:01.342Z,14.75
2023-05-15T05:43:04.093Z,14.55
2023-05-15T05:46:06.633Z,14.33
2023-05-15T05:49:09.310Z,14.24
2023-05-15T05:52:12.661Z,14.55
2023-05-15T05:55:15.976Z,14.71
2023-05-15T05:58:25.437Z,14.66
2023-05-15T06:01:29.372Z,14.35
2023-05-15T06:04:34.132Z,14.03
2023-05-15T06:07:40.374Z,13.77
2023-05-15T06:10:43.625Z,13.89
2023-05-15T06:13:49.545Z,13.78
2023-05-15T06:16:56.004Z,13.68
2023-05-15T06:20:01.545Z,13.77
2023-05-15T06:23:09.270Z,13.93
2023-05-15T06:26:12.019Z,13.94
2023-05-15T06:29:17.670Z,14.26
2023-05-15T06:32:20.248Z,14.49
2023-05-15T06:35:25.988Z,14.51
2023-05-15T06:38:29.181Z,14.56
2023-05-15T06:41:32.988Z,14.81
2023-05-15T06:44:36.246Z,15.01
2023-05-15T06:47:39.577Z,15.44
2023-05-15T06:50:42.207Z,15.19
2023-05-15T06:53:44.818Z,15.60
2023-05-15T06:56:48.103Z,15.34
2023-05-15T07:00:04.513Z,15.38
2023-05-15T07:12:26.020Z,15.50
2023-05-15T07:15:31.805Z,15.67
2023-05-15T07:18:34.672Z,15.76
2023-05-15T07:21:40.234Z,15.89
2023-05-15T07:24:43.711Z,15.57
2023-05-15T07:28:23.332Z,15.67
2023-05-15T07:31:31.353Z,16.01
2023-05-15T07:34:34.041Z,16.21
2023-05-15T07:37:36.668Z,16.50
2023-05-15T07:40:39.866Z,16.40
2023-05-15T07:57:36.476Z,17.13
2023-05-15T08:00:41.558Z,17.35
2023-05-15T08:03:44.422Z,17.23
2023-05-15T08:06:50.093Z,17.31
2023-05-15T08:10:09.707Z,17.49
2023-05-15T08:13:17.772Z,17.58
2023-05-15T08:16:20.787Z,17.61
2023-05-15T08:19:24.171Z,17.74
2023-05-15T08:22:40.789Z,17.03
2023-05-15T08:25:43.518Z,16.59
2023-05-15T08:28:49.204Z,15.96
2023-05-15T08:31:52.154Z,15.83
2023-05-15T08:34:54.921Z,16.15
2023-05-15T08:38:00.738Z,16.36
2023-05-15T08:41:08.606Z,16.54
2023-05-15T08:44:13.695Z,16.69
2023-05-15T08:47:20.783Z,16.94
2023-05-15T08:50:24.072Z,17.26
2023-05-15T08:53:30.510Z,17.06
2023-05-15T08:56:33.390Z,16.91
2023-05-15T08:59:38.220Z,17.08
2023-05-15T09:02:44.448Z,17.00
2023-05-15T09:05:48.333Z,17.03
2023-05-15T09:08:52.933Z,17.37
2023-05-15T09:11:57.216Z,17.07
2023-05-15T09:15:22.580Z,16.65
2023-05-15T09:18:25.769Z,16.59
2023-05-15T09:21:31.792Z,16.26
2023-05-15T09:24:38.151Z,16.86
2023-05-15T09:27:44.204Z,16.70
2023-05-15T09:30:47.485Z,16.66
2023-05-15T09:34:02.538Z,17.17
2023-05-15T09:37:07.892Z,17.20
2023-05-15T09:40:11.872Z,16.99
2023-05-15T09:43:14.459Z,17.26
2023-05-15T09:46:17.851Z,16.96
2023-05-15T09:49:23.454Z,17.21
2023-05-15T09:52:30.132Z,17.32
2023-05-15T09:55:36.428Z,17.26
2023-05-15T09:59:34.926Z,17.50
2023-05-15T10:07:27.393Z,17.55
2023-05-15T10:10:58.012Z,17.37
2023-05-15T10:14:02.177Z,17.33
2023-05-15T10:22:02.985Z,17.42
2023-05-15T10:30:49.202Z,17.47
2023-05-15T10:34:01.997Z,17.65
2023-05-15T10:37:14.072Z,17.47
2023-05-15T10:40:30.554Z,17.32
2023-05-15T10:43:38.043Z,17.57
2023-05-15T10:46:41.578Z,17.71
2023-05-15T10:49:44.828Z,18.15
2023-05-15T10:52:53.269Z,18.57
2023-05-15T10:55:56.201Z,18.70
2023-05-15T10:59:05.266Z,18.13
2023-05-15T11:02:25.848Z,18.81
2023-05-15T11:05:52.085Z,18.78
2023-05-15T11:09:15.186Z,18.82
2023-05-15T11:12:18.215Z,18.78
2023-05-15T11:15:21.205Z,19.24
2023-05-15T11:18:23.995Z,18.88
2023-05-15T11:21:46.915Z,19.45
2023-05-15T11:25:06.213Z,19.64
2023-05-15T11:28:36.732Z,19.66
2023-05-15T11:31:42.386Z,20.08
2023-05-15T11:34:45.213Z,19.65
2023-05-15T11:37:54.240Z,19.31
2023-05-15T11:41:03.261Z,19.42
2023-05-15T11:44:09.370Z,18.98
2023-05-15T11:47:12.609Z,18.37
2023-05-15T11:50:37.768Z,18.43
2023-05-15T11:54:27.465Z,18.90
2023-05-15T11:57:30.527Z,18.39
2023-05-15T12:00:36.163Z,19.37
2023-05-15T12:03:42.193Z,19.54
2023-05-15T12:06:47.839Z,20.03
2023-05-15T12:10:26.097Z,20.41
2023-05-15T12:13:33.206Z,20.52
2023-05-15T12:16:43.566Z,19.76
2023-05-15T12:19:53.398Z,19.49
2023-05-15T12:23:27.068Z,18.84
2023-05-15T12:36:19.543Z,20.10
2023-05-15T12:39:54.190Z,20.02
2023-05-15T12:59:28.103Z,21.23
2023-05-15T13:03:19.189Z,21.01
2023-05-15T13:06:23.920Z,20.58
2023-05-15T13:09:29.197Z,20.43
2023-05-15T13:12:45.610Z,21.17
2023-05-15T13:15:49.100Z,21.46
2023-05-15T13:18:52.736Z,21.67
2023-05-15T13:21:57.666Z,22.78
2023-05-15T13:25:01.093Z,23.49
2023-05-15T13:28:06.187Z,23.15
2023-05-15T13:31:08.910Z,23.32
2023-05-15T13:34:11.691Z,23.41
2023-05-15T13:37:18.823Z,24.99
2023-05-15T13:40:22.047Z,24.06
2023-05-15T13:44:15.317Z,23.00
2023-05-15T13:47:18.654Z,22.92
2023-05-15T13:50:21.668Z,21.82
2023-05-15T13:53:24.622Z,24.40
2023-05-15T13:56:27.657Z,24.87
2023-05-15T13:59:30.594Z,24.98
2023-05-15T14:02:34.250Z,25.66
2023-05-15T14:05:37.859Z,25.40
2023-05-15T14:08:40.714Z,23.99
2023-05-15T14:11:43.542Z,22.83
2023-05-15T14:14:47.232Z,21.78
2023-05-15T14:17:50.772Z,22.59
2023-05-15T14:20:57.959Z,22.49
2023-05-15T14:24:00.846Z,22.84
2023-05-15T14:27:04.345Z,23.99
2023-05-15T14:30:07.823Z,25.55
2023-05-15T14:33:10.790Z,25.44
2023-05-15T14:36:13.798Z,24.29
2023-05-15T14:39:17.032Z,24.06
2023-05-15T14:42:21.354Z,23.90
2023-05-15T14:45:24.230Z,23.55
2023-05-15T14:48:27.277Z,23.42
2023-05-15T14:51:30.202Z,22.97
2023-05-15T14:54:33.148Z,22.67
2023-05-15T14:57:36.178Z,22.55
2023-05-15T15:00:39.016Z,22.33
2023-05-15T15:03:44.132Z,22.00
2023-05-15T15:06:50.132Z,22.18
2023-05-15T15:09:56.021Z,22.94
2023-05-15T15:12:59.337Z,23.23
2023-05-15T15:16:02.423Z,23.06
2023-05-15T15:19:05.363Z,23.31
2023-05-15T15:22:08.299Z,22.58
2023-05-15T15:25:11.832Z,21.88
2023-05-15T15:28:14.836Z,21.61
2023-05-15T15:31:17.859Z,20.98
2023-05-15T15:34:20.702Z,20.67
2023-05-15T15:37:23.771Z,19.92
2023-05-15T15:40:29.621Z,19.86
2023-05-15T15:43:32.678Z,19.86
2023-05-15T15:46:35.718Z,19.58
2023-05-15T15:49:38.768Z,19.30
2023-05-15T15:52:41.612Z,19.25
2023-05-15T15:55:46.366Z,18.91
2023-05-15T15:58:50.015Z,18.94
2023-05-15T16:01:52.807Z,18.64
2023-05-15T16:04:55.858Z,18.50
2023-05-15T16:07:58.690Z,18.48
2023-05-15T16:11:01.625Z,18.42
2023-05-15T16:14:07.414Z,18.44
2023-05-15T16:17:10.311Z,18.35
2023-05-15T16:20:18.475Z,18.39
2023-05-15T16:23:21.897Z,18.20
2023-05-15T16:26:24.851Z,18.39
2023-05-15T16:29:28.985Z,18.40
2023-05-15T16:32:32.012Z,18.12
2023-05-15T16:35:36.958Z,17.99
2023-05-15T16:38:39.929Z,17.97
2023-05-15T16:41:42.900Z,17.52
2023-05-15T16:44:46.165Z,17.33
2023-05-15T16:47:49.483Z,17.16
2023-05-15T16:50:53.037Z,17.28
2023-05-15T16:53:56.827Z,17.45
2023-05-15T16:56:59.664Z,17.35
2023-05-15T17:00:02.458Z,17.32
2023-05-15T17:03:06.463Z,17.43
2023-05-15T17:06:13.570Z,17.14
2023-05-15T17:09:16.464Z,16.91
2023-05-15T17:12:19.298Z,16.86
2023-05-15T17:15:25.514Z,16.70
2023-05-15T17:18:28.799Z,16.97
2023-05-15T17:21:32.096Z,16.46
2023-05-15T17:24:49.389Z,16.81
2023-05-15T17:27:56.559Z,16.50
2023-05-15T17:30:59.318Z,16.18
2023-05-15T17:34:02.296Z,16.31
2023-05-15T17:37:05.154Z,15.77
2023-05-15T17:40:11.369Z,15.92
2023-05-15T17:43:14.346Z,15.68
2023-05-15T17:46:17.225Z,15.70
2023-05-15T17:49:20.090Z,15.95
2023-05-15T17:52:23.020Z,15.43
2023-05-15T17:55:26.172Z,15.43
2023-05-15T17:58:29.112Z,15.16
2023-05-15T18:01:32.630Z,15.14
2023-05-15T18:04:35.613Z,15.13
2023-05-15T18:07:38.447Z,15.10
2023-05-15T18:10:44.237Z,14.97
2023-05-15T18:13:47.010Z,14.88
2023-05-15T18:16:53.051Z,14.79
2023-05-15T18:19:56.309Z,15.02
2023-05-15T18:22:59.124Z,14.84
2023-05-15T18:26:02.058Z,14.98
2023-05-15T18:29:04.899Z,14.49
2023-05-15T18:32:07.982Z,14.83
2023-05-15T18:35:10.940Z,14.72
2023-05-15T18:38:14.071Z,14.86
2023-05-15T18:41:17.201Z,14.76
2023-05-15T18:44:20.078Z,14.55
2023-05-15T18:47:23.075Z,14.57
2023-05-15T18:50:26.164Z,14.53
2023-05-15T18:53:29.066Z,14.56
2023-05-15T18:56:31.853Z,14.64
2023-05-15T18:59:34.970Z,14.47
2023-05-15T19:02:40.368Z,14.40
2023-05-15T19:05:43.367Z,14.33
2023-05-15T19:08:50.348Z,14.19
2023-05-15T19:11:53.108Z,14.04
2023-05-15T19:14:56.049Z,14.30
2023-05-15T19:18:00.232Z,14.23
2023-05-15T19:21:04.870Z,13.89
2023-05-15T19:24:10.653Z,13.77
2023-05-15T19:27:13.907Z,13.77
2023-05-15T19:30:16.830Z,13.97
2023-05-15T19:33:20.196Z,13.78
2023-05-15T19:36:26.327Z,13.62
2023-05-15T19:39:32.875Z,13.62
2023-05-15T19:42:35.789Z,13.62
2023-05-15T19:45:41.755Z,13.57
2023-05-15T19:48:47.268Z,13.49
2023-05-15T19:51:50.201Z,13.67
2023-05-15T19:54:53.119Z,13.40
2023-05-15T19:57:56.989Z,13.56
2023-05-15T20:01:03.037Z,13.35
2023-05-15T20:04:05.913Z,13.37
2023-05-15T20:07:08.810Z,13.43
2023-05-15T20:10:12.352Z,13.36
2023-05-15T20:13:15.261Z,13.22
2023-05-15T20:16:25.098Z,13.55
2023-05-15T20:19:31.607Z,13.17
2023-05-15T20:22:34.895Z,13.25
2023-05-15T20:25:40.688Z,13.77
2023-05-15T20:28:46.355Z,13.39
2023-05-15T20:31:52.479Z,13.35
2023-05-15T20:34:58.554Z,13.35
2023-05-15T20:38:08.615Z,13.39
2023-05-15T20:41:11.659Z,13.33
2023-05-15T20:44:14.514Z,13.69
2023-05-15T20:47:17.886Z,13.26
2023-05-15T20:50:21.898Z,13.64
2023-05-15T20:53:24.911Z,13.08
2023-05-15T20:56:30.840Z,13.15
2023-05-15T20:59:34.109Z,13.08
2023-05-15T21:02:37.254Z,13.42
2023-05-15T21:05:40.905Z,13.17
2023-05-15T21:08:46.553Z,13.34
2023-05-15T21:11:50.367Z,13.30
2023-05-15T21:14:54.036Z,13.60
2023-05-15T21:17:57.053Z,13.58
2023-05-15T21:21:00.372Z,13.63
2023-05-15T21:24:04.096Z,13.32
2023-05-15T21:27:07.047Z,13.16
2023-05-15T21:30:10.330Z,13.27
2023-05-15T21:33:13.254Z,13.21
2023-05-15T21:36:18.521Z,13.38
2023-05-15T21:39:23.980Z,13.11
2023-05-15T21:42:26.828Z,13.08
2023-05-15T21:45:30.065Z,13.27
2023-05-15T21:48:32.931Z,13.29
2023-05-15T21:51:36.347Z,13.27
2023-05-15T21:54:39.510Z,13.28
2023-05-15T21:57:45.697Z,12.94
2023-05-15T22:00:48.637Z,13.00
2023-05-15T22:03:53.736Z,13.16
2023-05-15T22:06:56.693Z,13.03
2023-05-15T22:09:59.705Z,13.17
2023-05-15T22:13:03.556Z,13.19
2023-05-15T22:16:06.641Z,13.37
2023-05-15T22:19:18.506Z,12.92
2023-05-15T22:22:31.694Z,12.69
2023-05-15T22:25:34.630Z,13.21
2023-05-15T22:28:37.421Z,12.87
2023-05-15T22:31:40.309Z,12.78
2023-05-15T22:34:43.143Z,12.94
2023-05-15T22:37:49.625Z,12.65
2023-05-15T22:40:55.163Z,12.73
2023-05-15T22:43:58.010Z,12.66
2023-05-15T22:47:00.816Z,12.48
2023-05-15T22:50:03.952Z,13.01
2023-05-15T22:53:06.943Z,12.83
2023-05-15T22:56:09.819Z,12.79
2023-05-15T22:59:12.695Z,12.57
2023-05-15T23:02:18.802Z,12.84
2023-05-15T23:05:22.075Z,12.73
2023-05-15T23:08:25.232Z,12.64
2023-05-15T23:11:28.476Z,12.63
2023-05-15T23:14:31.345Z,12.50
2023-05-15T23:17:34.244Z,12.60
2023-05-15T23:20:38.046Z,12.85
2023-05-15T23:23:43.064Z,12.93
2023-05-15T23:26:47.126Z,12.63
2023-05-15T23:29:49.963Z,12.43
2023-05-15T23:32:55.447Z,12.38
2023-05-15T23:35:58.415Z,12.23
2023-05-15T23:39:01.260Z,12.34
2023-05-15T23:42:04.183Z,12.09
2023-05-15T23:45:10.170Z,12.56
2023-05-15T23:48:13.251Z,12.11
2023-05-15T23:51:17.137Z,12.25
2023-05-15T23:54:21.003Z,12.26
2023-05-15T23:57:23.854Z,12.32
